createdAt,value
2023-02-18T00:01:02.630Z,1.83
2023-02-18T00:03:30.094Z,1.50
2023-02-18T00:05:56.994Z,1.50
2023-02-18T00:08:23.891Z,1.67
2023-02-18T00:10:50.737Z,1.50
2023-02-18T00:13:17.640Z,1.60
2023-02-18T00:15:44.401Z,1.40
2023-02-18T00:18:12.046Z,1.50
2023-02-18T00:20:39.630Z,2.10
2023-02-18T00:23:06.489Z,1.70
2023-02-18T00:25:33.326Z,1.47
2023-02-18T00:28:00.134Z,1.63
2023-02-18T00:30:28.583Z,1.93
2023-02-18T00:32:55.517Z,1.70
2023-02-18T00:35:22.278Z,1.60
2023-02-18T00:37:52.178Z,1.80
2023-02-18T00:40:20.094Z,1.60
2023-02-18T00:42:47.410Z,1.80
2023-02-18T00:45:14.270Z,1.47
2023-02-18T00:47:41.084Z,1.80
2023-02-18T00:50:08.995Z,1.50
2023-02-18T00:52:35.901Z,1.70
2023-02-18T00:55:02.844Z,2.53
2023-02-18T00:57:29.562Z,2.23
2023-02-18T00:59:56.282Z,2.40
2023-02-18T01:02:24.239Z,2.63
2023-02-18T01:04:51.059Z,2.77
2023-02-18T01:07:17.817Z,2.97
2023-02-18T01:09:44.612Z,2.70
2023-02-18T01:12:11.392Z,2.13
2023-02-18T01:14:38.356Z,2.80
2023-02-18T01:17:05.144Z,2.47
2023-02-18T01:19:32.098Z,4.87
2023-02-18T01:21:58.952Z,2.07
2023-02-18T01:24:25.908Z,2.10
2023-02-18T01:26:52.660Z,2.47
2023-02-18T01:29:19.459Z,2.67
2023-02-18T01:31:46.309Z,2.20
2023-02-18T01:34:13.211Z,2.77
2023-02-18T01:36:39.953Z,1.93
2023-02-18T01:39:07.234Z,2.20
2023-02-18T01:41:33.972Z,2.20
2023-02-18T01:44:20.307Z,1.70
2023-02-18T01:46:47.473Z,2.40
2023-02-18T01:49:24.292Z,2.37
2023-02-18T01:51:55.950Z,2.37
2023-02-18T01:54:57.034Z,1.43
2023-02-18T01:57:32.940Z,1.37
2023-02-18T02:00:08.321Z,3.63
2023-02-18T02:02:40.301Z,1.17
2023-02-18T02:05:09.040Z,2.60
2023-02-18T02:07:35.862Z,1.63
2023-02-18T02:10:02.982Z,2.97
2023-02-18T02:12:54.584Z,3.40
2023-02-18T02:15:44.878Z,3.30
2023-02-18T02:18:36.891Z,3.33
2023-02-18T02:21:40.790Z,6.13
2023-02-18T02:24:16.280Z,5.63
2023-02-18T02:27:01.148Z,4.30
2023-02-18T02:29:48.744Z,4.07
2023-02-18T02:32:47.242Z,5.60
2023-02-18T02:35:24.959Z,11.17
2023-02-18T02:38:04.478Z,7.13
2023-02-18T02:40:54.891Z,7.83
2023-02-18T02:43:42.016Z,5.70
2023-02-18T02:46:31.645Z,8.50
2023-02-18T02:49:22.553Z,3.67
2023-02-18T02:51:52.396Z,3.20
2023-02-18T02:54:25.317Z,13.97
2023-02-18T02:57:14.239Z,5.23
2023-02-18T02:59:47.538Z,8.23
2023-02-18T03:02:33.521Z,7.10
2023-02-18T03:05:28.117Z,5.77
2023-02-18T03:08:17.685Z,5.00
2023-02-18T03:10:57.290Z,5.13
2023-02-18T03:13:33.618Z,6.17
2023-02-18T03:16:15.534Z,5.67
2023-02-18T03:19:01.374Z,7.00
2023-02-18T03:21:53.836Z,9.23
2023-02-18T03:24:26.731Z,8.87
2023-02-18T03:26:59.510Z,4.60
2023-02-18T03:29:27.767Z,7.20
2023-02-18T03:31:59.388Z,7.57
2023-02-18T03:34:31.344Z,9.40
2023-02-18T03:37:00.036Z,8.50
2023-02-18T03:39:29.870Z,4.43
2023-02-18T03:41:57.019Z,4.67
2023-02-18T03:44:26.031Z,11.93
2023-02-18T03:46:53.330Z,13.77
2023-02-18T03:49:20.123Z,5.10
2023-02-18T03:51:47.244Z,6.73
2023-02-18T03:54:14.702Z,9.23
2023-02-18T03:56:42.749Z,5.07
2023-02-18T03:59:11.402Z,6.87
2023-02-18T04:01:38.394Z,7.33
2023-02-18T04:04:05.451Z,6.37
2023-02-18T04:06:32.292Z,6.50
2023-02-18T04:08:59.110Z,8.93
2023-02-18T04:11:25.852Z,6.27
2023-02-18T04:13:53.159Z,7.47
2023-02-18T04:16:20.045Z,7.37
2023-02-18T04:18:46.775Z,6.40
2023-02-18T04:21:13.689Z,9.20
2023-02-18T04:23:40.490Z,9.00
2023-02-18T04:26:07.544Z,11.27
2023-02-18T04:28:34.625Z,8.03
2023-02-18T04:31:03.176Z,8.10
2023-02-18T04:33:30.037Z,6.57
2023-02-18T04:35:56.884Z,8.63
2023-02-18T04:38:23.998Z,9.20
2023-02-18T04:40:50.826Z,7.60
2023-02-18T04:43:17.735Z,6.50
2023-02-18T04:45:44.627Z,5.30
2023-02-18T04:48:11.486Z,6.03
2023-02-18T04:50:38.494Z,8.20
2023-02-18T04:53:05.313Z,8.83
2023-02-18T04:55:32.203Z,8.57
2023-02-18T04:57:58.936Z,19.37
2023-02-18T05:00:26.885Z,4.33
2023-02-18T05:02:54.632Z,8.73
2023-02-18T05:05:21.512Z,8.83
2023-02-18T05:07:48.397Z,5.97
2023-02-18T05:10:17.588Z,7.73
2023-02-18T05:12:44.372Z,5.07
2023-02-18T05:15:11.538Z,5.47
2023-02-18T05:17:39.321Z,6.37
2023-02-18T05:20:10.507Z,6.13
2023-02-18T05:22:37.911Z,7.07
2023-02-18T05:25:06.030Z,10.10
2023-02-18T05:27:33.003Z,9.17
2023-02-18T05:29:59.858Z,7.70
2023-02-18T05:32:27.023Z,7.20
2023-02-18T05:34:53.738Z,5.43
2023-02-18T05:37:20.525Z,6.17
2023-02-18T05:39:47.321Z,9.27
2023-02-18T05:42:14.251Z,5.33
2023-02-18T05:44:41.222Z,10.27
2023-02-18T05:47:11.632Z,3.97
2023-02-18T05:49:40.037Z,7.70
2023-02-18T05:52:07.902Z,7.40
2023-02-18T05:54:36.021Z,6.07
2023-02-18T05:57:03.025Z,5.97
2023-02-18T05:59:29.842Z,6.90
2023-02-18T06:01:56.734Z,5.23
2023-02-18T06:04:24.185Z,5.50
2023-02-18T06:06:50.975Z,4.60
2023-02-18T06:09:17.838Z,4.27
2023-02-18T06:11:44.672Z,6.33
2023-02-18T06:14:11.469Z,4.10
2023-02-18T06:16:38.503Z,3.10
2023-02-18T06:19:05.414Z,3.50
2023-02-18T06:21:32.380Z,6.13
2023-02-18T06:23:59.148Z,3.93
2023-02-18T06:26:26.986Z,5.20
2023-02-18T06:28:54.045Z,4.93
2023-02-18T06:31:20.974Z,5.27
2023-02-18T06:33:47.801Z,8.53
2023-02-18T06:36:14.699Z,8.57
2023-02-18T06:38:43.513Z,5.73
2023-02-18T06:41:12.072Z,5.03
2023-02-18T06:43:39.243Z,5.43
2023-02-18T06:46:07.470Z,3.07
2023-02-18T06:48:34.510Z,8.67
2023-02-18T06:51:01.380Z,4.40
2023-02-18T06:53:28.172Z,5.90
2023-02-18T06:55:55.090Z,7.60
2023-02-18T06:58:23.328Z,6.80
2023-02-18T07:00:51.046Z,7.63
2023-02-18T07:03:18.167Z,5.10
2023-02-18T07:05:45.416Z,8.30
2023-02-18T07:08:12.842Z,4.23
2023-02-18T07:10:39.697Z,6.43
2023-02-18T07:13:06.916Z,8.47
2023-02-18T07:15:33.743Z,7.53
2023-02-18T07:18:00.685Z,5.70
2023-02-18T07:20:27.837Z,6.07
2023-02-18T07:22:54.836Z,7.63
2023-02-18T07:25:23.395Z,3.23
2023-02-18T07:27:51.003Z,7.60
2023-02-18T07:30:19.426Z,5.13
2023-02-18T07:32:46.626Z,6.77
2023-02-18T07:35:15.147Z,5.23
2023-02-18T07:37:47.034Z,6.60
2023-02-18T07:40:16.770Z,6.13
2023-02-18T07:42:43.542Z,5.27
2023-02-18T07:45:11.496Z,7.83
2023-02-18T07:47:38.424Z,5.67
2023-02-18T07:50:06.472Z,5.20
2023-02-18T07:52:33.302Z,6.80
2023-02-18T07:55:00.157Z,7.03
2023-02-18T07:57:27.044Z,6.00
2023-02-18T07:59:53.785Z,5.23
2023-02-18T08:02:23.110Z,7.67
2023-02-18T08:04:50.165Z,3.47
2023-02-18T08:07:19.294Z,4.57
2023-02-18T08:09:46.103Z,6.93
2023-02-18T08:12:12.914Z,4.60
2023-02-18T08:14:40.384Z,4.60
2023-02-18T08:17:10.257Z,4.77
2023-02-18T08:19:37.144Z,2.07
2023-02-18T08:22:04.046Z,3.67
2023-02-18T08:24:30.920Z,5.10
2023-02-18T08:27:01.246Z,5.23
2023-02-18T08:29:29.077Z,3.77
2023-02-18T08:31:58.108Z,3.97
2023-02-18T08:34:25.394Z,3.27
2023-02-18T08:36:52.272Z,4.27
2023-02-18T08:39:19.044Z,4.17
2023-02-18T08:41:45.785Z,3.33
2023-02-18T08:44:13.258Z,3.83
2023-02-18T08:46:40.250Z,3.80
2023-02-18T08:49:07.920Z,4.50
2023-02-18T08:51:35.304Z,3.63
2023-02-18T08:54:02.478Z,3.73
2023-02-18T08:56:29.355Z,2.97
2023-02-18T08:58:56.096Z,3.57
2023-02-18T09:01:23.277Z,5.50
2023-02-18T09:03:59.124Z,4.00
2023-02-18T09:06:36.103Z,4.53
2023-02-18T09:09:04.192Z,3.70
2023-02-18T09:11:32.695Z,4.50
2023-02-18T09:13:59.938Z,5.13
2023-02-18T09:16:28.239Z,2.47
2023-02-18T09:18:55.120Z,4.07
2023-02-18T09:21:23.308Z,2.10
2023-02-18T09:23:51.041Z,4.63
2023-02-18T09:26:22.924Z,4.83
2023-02-18T09:28:51.120Z,2.97
2023-02-18T09:31:22.549Z,2.93
2023-02-18T09:33:55.401Z,3.27
2023-02-18T09:36:22.920Z,2.47
2023-02-18T09:38:50.520Z,2.80
2023-02-18T09:41:44.996Z,4.13
2023-02-18T09:44:23.679Z,3.57
2023-02-18T09:46:55.189Z,4.80
2023-02-18T09:49:28.828Z,6.60
2023-02-18T09:51:57.359Z,5.17
2023-02-18T09:54:24.136Z,4.13
2023-02-18T09:56:53.327Z,4.40
2023-02-18T09:59:23.432Z,4.87
2023-02-18T10:01:52.743Z,4.67
2023-02-18T10:04:24.960Z,5.07
2023-02-18T10:06:54.152Z,3.90
2023-02-18T10:09:29.665Z,6.07
2023-02-18T10:12:00.573Z,5.27
2023-02-18T10:14:27.609Z,5.13
2023-02-18T10:16:54.663Z,5.93
2023-02-18T10:19:42.872Z,4.23
2023-02-18T10:22:14.949Z,6.00
2023-02-18T10:24:46.785Z,5.73
2023-02-18T10:27:25.532Z,4.57
2023-02-18T10:29:52.833Z,4.47
2023-02-18T10:32:33.391Z,4.97
2023-02-18T10:35:15.617Z,4.77
2023-02-18T10:38:04.518Z,5.00
2023-02-18T10:40:53.689Z,4.30
2023-02-18T10:44:02.529Z,3.83
2023-02-18T10:46:43.419Z,3.73
2023-02-18T10:49:25.990Z,4.10
2023-02-18T10:51:56.444Z,4.93
2023-02-18T10:54:28.400Z,3.20
2023-02-18T10:57:00.841Z,2.93
2023-02-18T10:59:36.664Z,5.97
2023-02-18T11:02:16.727Z,4.27
2023-02-18T11:04:46.683Z,3.83
2023-02-18T11:07:18.949Z,4.73
2023-02-18T11:09:53.540Z,4.63
2023-02-18T11:12:25.879Z,5.00
2023-02-18T11:15:10.454Z,6.13
2023-02-18T11:17:42.494Z,3.97
2023-02-18T11:20:32.376Z,2.87
2023-02-18T11:23:21.402Z,3.30
2023-02-18T11:26:02.615Z,3.50
2023-02-18T11:28:41.858Z,1.43
2023-02-18T11:31:12.215Z,5.17
2023-02-18T11:33:44.045Z,2.67
2023-02-18T11:36:35.268Z,1.33
2023-02-18T11:39:06.644Z,1.30
2023-02-18T11:41:43.395Z,2.30
2023-02-18T11:44:31.199Z,2.83
2023-02-18T11:47:04.588Z,2.10
2023-02-18T11:49:34.055Z,2.43
2023-02-18T11:52:33.193Z,1.37
2023-02-18T11:55:22.081Z,1.47
2023-02-18T11:58:10.354Z,1.50
2023-02-18T12:00:44.398Z,2.50
2023-02-18T12:03:44.648Z,2.60
2023-02-18T12:06:43.958Z,1.40
2023-02-18T12:09:35.256Z,1.87
2023-02-18T12:12:11.507Z,1.87
2023-02-18T12:14:38.682Z,1.40
2023-02-18T12:17:43.927Z,1.60
2023-02-18T12:20:43.543Z,1.53
2023-02-18T12:23:40.007Z,3.97
2023-02-18T12:26:34.948Z,3.00
2023-02-18T12:29:24.142Z,2.33
2023-02-18T12:32:03.849Z,1.67
2023-02-18T12:34:51.973Z,2.80
2023-02-18T12:38:08.302Z,2.20
2023-02-18T12:40:56.708Z,1.60
2023-02-18T12:44:00.761Z,2.30
2023-02-18T12:47:02.793Z,2.40
2023-02-18T12:49:39.594Z,3.53
2023-02-18T12:52:12.567Z,2.00
2023-02-18T12:54:56.774Z,2.53
2023-02-18T12:57:26.749Z,2.47
2023-02-18T13:00:50.787Z,2.07
2023-02-18T13:03:36.201Z,1.93
2023-02-18T13:06:22.839Z,1.90
2023-02-18T13:09:13.958Z,3.53
2023-02-18T13:12:20.840Z,3.73
2023-02-18T13:14:57.355Z,3.53
2023-02-18T13:17:27.365Z,4.67
2023-02-18T13:20:02.521Z,2.40
2023-02-18T13:22:30.955Z,4.93
2023-02-18T13:24:59.837Z,4.43
2023-02-18T13:27:56.749Z,3.40
2023-02-18T13:30:38.652Z,4.23
2023-02-18T13:33:15.755Z,4.53
2023-02-18T13:36:08.868Z,4.07
2023-02-18T13:39:11.742Z,5.23
2023-02-18T13:41:42.772Z,5.97
2023-02-18T13:44:29.829Z,5.60
2023-02-18T13:46:59.053Z,4.67
2023-02-18T13:49:34.572Z,5.67
2023-02-18T13:52:03.055Z,5.90
2023-02-18T13:54:34.362Z,6.83
2023-02-18T13:57:19.250Z,5.43
2023-02-18T13:59:53.170Z,5.27
2023-02-18T14:02:20.329Z,8.23
2023-02-18T14:04:47.291Z,5.27
2023-02-18T14:07:29.439Z,5.73
2023-02-18T14:09:58.664Z,4.27
2023-02-18T14:12:26.806Z,3.10
2023-02-18T14:14:53.878Z,3.43
2023-02-18T14:17:20.663Z,2.70
2023-02-18T14:19:55.485Z,3.57
2023-02-18T14:22:31.191Z,3.47
2023-02-18T14:25:06.534Z,2.57
2023-02-18T14:27:33.365Z,3.13
2023-02-18T14:30:24.684Z,2.47
2023-02-18T14:32:56.175Z,3.40
2023-02-18T14:35:42.229Z,2.30
2023-02-18T14:38:36.147Z,3.27
2023-02-18T14:41:11.846Z,2.10
2023-02-18T14:43:44.393Z,2.37
2023-02-18T14:46:16.956Z,2.20
2023-02-18T14:49:05.011Z,1.83
2023-02-18T14:51:35.466Z,2.53
2023-02-18T14:54:07.413Z,1.40
2023-02-18T14:56:39.680Z,1.70
2023-02-18T14:59:07.103Z,2.90
2023-02-18T15:01:35.659Z,3.40
2023-02-18T15:04:04.747Z,2.37
2023-02-18T15:06:33.066Z,3.93
2023-02-18T15:09:01.776Z,2.23
2023-02-18T15:11:58.664Z,1.83
2023-02-18T15:14:33.517Z,1.97
2023-02-18T15:17:02.034Z,2.40
2023-02-18T15:19:36.907Z,2.53
2023-02-18T15:22:03.796Z,2.40
2023-02-18T15:24:36.995Z,2.23
2023-02-18T15:27:17.212Z,3.93
2023-02-18T15:29:44.036Z,1.73
2023-02-18T15:32:23.879Z,3.03
2023-02-18T15:35:01.861Z,2.37
2023-02-18T15:37:30.223Z,3.40
2023-02-18T15:40:01.017Z,2.07
2023-02-18T15:42:33.769Z,3.43
2023-02-18T15:45:12.809Z,2.77
2023-02-18T15:47:51.124Z,3.20
2023-02-18T15:50:32.003Z,3.50
2023-02-18T15:53:06.171Z,4.50
2023-02-18T15:55:38.537Z,3.10
2023-02-18T15:58:18.805Z,3.83
2023-02-18T16:01:00.346Z,3.47
2023-02-18T16:03:39.964Z,3.27
2023-02-18T16:06:22.304Z,4.23
2023-02-18T16:09:12.842Z,3.73
2023-02-18T16:11:43.463Z,2.53
2023-02-18T16:14:46.992Z,3.70
2023-02-18T16:17:22.742Z,4.47
2023-02-18T16:20:04.426Z,3.30
2023-02-18T16:22:32.620Z,3.63
2023-02-18T16:25:09.293Z,3.53
2023-02-18T16:27:46.633Z,2.90
2023-02-18T16:30:20.090Z,3.13
2023-02-18T16:32:47.086Z,2.87
2023-02-18T16:35:14.582Z,3.17
2023-02-18T16:37:43.089Z,4.07
2023-02-18T16:40:24.299Z,4.37
2023-02-18T16:42:51.732Z,3.30
2023-02-18T16:45:18.717Z,5.27
2023-02-18T16:47:48.019Z,5.73
2023-02-18T16:50:19.668Z,4.50
2023-02-18T16:52:49.868Z,3.93
2023-02-18T16:55:22.186Z,5.63
2023-02-18T16:57:49.597Z,3.30
2023-02-18T17:00:18.079Z,3.13
2023-02-18T17:02:49.964Z,3.53
2023-02-18T17:05:27.092Z,3.93
2023-02-18T17:07:55.222Z,2.67
2023-02-18T17:10:22.160Z,4.07
2023-02-18T17:12:49.039Z,3.50
2023-02-18T17:15:24.803Z,5.53
2023-02-18T17:17:51.582Z,4.20
2023-02-18T17:20:18.942Z,4.53
2023-02-18T17:22:46.068Z,2.50
2023-02-18T17:25:18.650Z,3.00
2023-02-18T17:27:47.766Z,3.60
2023-02-18T17:30:15.598Z,4.97
2023-02-18T17:32:45.200Z,3.77
2023-02-18T17:35:21.167Z,4.60
2023-02-18T17:38:05.927Z,4.23
2023-02-18T17:40:33.473Z,4.57
2023-02-18T17:43:00.439Z,3.53
2023-02-18T17:45:36.305Z,4.97
2023-02-18T17:48:03.833Z,3.80
2023-02-18T17:50:31.858Z,4.73
2023-02-18T17:52:59.270Z,4.80
2023-02-18T17:55:31.876Z,4.10
2023-02-18T17:57:59.198Z,4.73
2023-02-18T18:00:29.524Z,6.40
2023-02-18T18:02:56.284Z,2.93
2023-02-18T18:05:27.856Z,5.60
2023-02-18T18:07:55.118Z,5.10
2023-02-18T18:10:28.714Z,5.37
2023-02-18T18:12:55.528Z,5.47
2023-02-18T18:15:27.497Z,6.40
2023-02-18T18:17:56.122Z,4.47
2023-02-18T18:20:28.508Z,7.10
2023-02-18T18:22:56.964Z,5.37
2023-02-18T18:25:31.065Z,5.40
2023-02-18T18:27:57.866Z,6.83
2023-02-18T18:30:30.996Z,6.43
2023-02-18T18:33:01.055Z,5.57
2023-02-18T18:35:34.559Z,7.00
2023-02-18T18:38:02.660Z,8.60
2023-02-18T18:40:32.472Z,8.10
2023-02-18T18:43:01.153Z,6.63
2023-02-18T18:45:30.770Z,6.43
2023-02-18T18:47:58.378Z,8.23
2023-02-18T18:50:26.669Z,6.10
2023-02-18T18:52:54.683Z,5.63
2023-02-18T18:55:36.153Z,6.67
2023-02-18T18:58:03.659Z,4.77
2023-02-18T19:00:36.572Z,7.13
2023-02-18T19:03:04.540Z,8.30
2023-02-18T19:05:38.119Z,8.07
2023-02-18T19:08:06.384Z,5.30
2023-02-18T19:10:37.624Z,8.90
2023-02-18T19:13:14.514Z,4.83
2023-02-18T19:15:46.400Z,7.30
2023-02-18T19:18:15.506Z,5.67
2023-02-18T19:20:43.101Z,5.47
2023-02-18T19:23:24.723Z,6.13
2023-02-18T19:25:51.704Z,9.73
2023-02-18T19:28:21.673Z,5.83
2023-02-18T19:31:00.164Z,7.27
2023-02-18T19:33:31.617Z,8.17
2023-02-18T19:36:00.319Z,11.17
2023-02-18T19:38:27.235Z,10.57
2023-02-18T19:40:56.116Z,7.97
2023-02-18T19:43:28.413Z,11.20
2023-02-18T19:45:58.256Z,11.20
2023-02-18T19:48:25.026Z,13.13
2023-02-18T19:50:51.943Z,14.53
2023-02-18T19:53:18.724Z,12.07
2023-02-18T19:55:45.586Z,10.60
2023-02-18T19:58:12.542Z,13.40
2023-02-18T20:00:40.793Z,12.07
2023-02-18T20:03:14.153Z,9.23
2023-02-18T20:05:41.550Z,11.37
2023-02-18T20:08:08.632Z,10.27
2023-02-18T20:10:36.171Z,10.73
2023-02-18T20:13:10.530Z,9.67
2023-02-18T20:15:44.116Z,13.17
2023-02-18T20:18:11.116Z,8.87
2023-02-18T20:20:39.567Z,12.17
2023-02-18T20:23:06.445Z,10.13
2023-02-18T20:25:39.127Z,12.63
2023-02-18T20:28:06.047Z,11.90
2023-02-18T20:30:32.849Z,11.87
2023-02-18T20:32:59.651Z,11.43
2023-02-18T20:35:27.847Z,8.40
2023-02-18T20:37:57.637Z,14.23
2023-02-18T20:40:24.498Z,9.17
2023-02-18T20:43:07.263Z,11.50
2023-02-18T20:45:34.099Z,8.47
2023-02-18T20:48:00.890Z,7.63
2023-02-18T20:50:27.633Z,6.23
2023-02-18T20:52:55.152Z,7.23
2023-02-18T20:55:22.637Z,6.40
2023-02-18T20:57:49.446Z,9.90
2023-02-18T21:00:16.477Z,6.20
2023-02-18T21:02:43.660Z,7.07
2023-02-18T21:05:10.427Z,7.87
2023-02-18T21:07:37.386Z,7.77
2023-02-18T21:10:04.520Z,9.73
2023-02-18T21:12:31.483Z,6.33
2023-02-18T21:14:58.314Z,7.90
2023-02-18T21:17:25.060Z,7.87
2023-02-18T21:19:51.964Z,4.80
2023-02-18T21:22:18.761Z,5.53
2023-02-18T21:24:46.219Z,8.93
2023-02-18T21:27:12.988Z,6.70
2023-02-18T21:29:39.792Z,6.83
2023-02-18T21:32:07.653Z,6.83
2023-02-18T21:34:34.476Z,5.53
2023-02-18T21:37:01.392Z,4.70
2023-02-18T21:39:28.309Z,8.90
2023-02-18T21:41:59.671Z,6.70
2023-02-18T21:44:40.155Z,9.27
2023-02-18T21:47:08.485Z,6.17
2023-02-18T21:49:35.432Z,8.27
2023-02-18T21:52:08.675Z,7.47
2023-02-18T21:54:39.937Z,7.40
2023-02-18T21:57:13.502Z,6.97
2023-02-18T21:59:41.006Z,9.43
2023-02-18T22:02:14.607Z,7.73
2023-02-18T22:04:41.703Z,10.13
2023-02-18T22:07:11.937Z,7.70
2023-02-18T22:09:39.155Z,8.33
2023-02-18T22:12:06.879Z,8.30
2023-02-18T22:14:33.810Z,8.23
2023-02-18T22:17:01.103Z,7.77
2023-02-18T22:19:27.969Z,6.00
2023-02-18T22:21:55.180Z,9.67
2023-02-18T22:24:22.283Z,10.93
2023-02-18T22:26:50.949Z,11.00
2023-02-18T22:29:20.035Z,7.97
2023-02-18T22:31:47.684Z,9.77
2023-02-18T22:34:14.654Z,11.17
2023-02-18T22:36:41.896Z,7.00
2023-02-18T22:39:10.225Z,11.20
2023-02-18T22:41:37.630Z,10.07
2023-02-18T22:44:07.227Z,8.73
2023-02-18T22:46:35.757Z,11.30
2023-02-18T22:49:04.273Z,10.03
2023-02-18T22:51:37.838Z,9.93
2023-02-18T22:54:09.983Z,12.30
2023-02-18T22:56:36.888Z,7.73
2023-02-18T22:59:03.827Z,6.30
2023-02-18T23:01:32.823Z,10.77
2023-02-18T23:04:09.095Z,6.57
2023-02-18T23:06:36.967Z,10.67
2023-02-18T23:09:05.765Z,5.30
2023-02-18T23:11:32.704Z,6.77
2023-02-18T23:14:18.116Z,9.07
2023-02-18T23:17:07.361Z,5.47
2023-02-18T23:19:35.715Z,7.87
2023-02-18T23:22:02.562Z,8.77
2023-02-18T23:24:32.674Z,7.57
2023-02-18T23:26:59.429Z,7.93
2023-02-18T23:29:26.422Z,6.70
2023-02-18T23:31:53.264Z,5.87
2023-02-18T23:34:20.094Z,8.77
2023-02-18T23:36:50.852Z,5.90
2023-02-18T23:39:20.423Z,7.00
2023-02-18T23:41:49.255Z,7.77
2023-02-18T23:44:18.897Z,8.50
2023-02-18T23:46:47.587Z,6.43
2023-02-18T23:49:19.291Z,8.13
2023-02-18T23:51:46.083Z,6.57
2023-02-18T23:54:13.339Z,7.07
2023-02-18T23:56:40.626Z,7.77
2023-02-18T23:59:07.911Z,6.07
